Time;durP1;ratioP1;P1;durP2;ratioP2;P2;SDS_P1;SDS_P2;PMS_P1;PMS_P2;Temp;Humidity;BMP_temperature;BMP_pressure;BME280_temperature;BME280_humidity;BME280_pressure;Samples;Min_cycle;Max_cycle;Signal;HPM_P1;HPM_P2
2023/10/26 00:02:23;;;;;;;13.03;11.40;;;;;;;;;;5039254;28;20180;-86
2023/10/26 00:04:49;;;;;;;12.80;11.20;;;;;;;;;;5039264;28;20256;-86
2023/10/26 00:07:15;;;;;;;13.17;11.47;;;;;;;;;;5036246;28;20188;-86
2023/10/26 00:09:42;;;;;;;13.37;12.00;;;;;;;;;;5022383;28;20276;-84
2023/10/26 00:12:11;;;;;;;19.50;12.73;;;;;;;;;;5022393;28;20212;-83
2023/10/26 00:14:38;;;;;;;14.97;11.93;;;;;;;;;;5037098;28;20221;-83
2023/10/26 00:17:04;;;;;;;13.53;12.13;;;;;;;;;;5031873;28;20183;-83
2023/10/26 00:19:34;;;;;;;16.77;12.70;;;;;;;;;;5022294;28;20185;-88
2023/10/26 00:22:00;;;;;;;14.17;12.53;;;;;;;;;;5022241;28;20184;-88
2023/10/26 00:24:38;;;;;;;15.00;13.00;;;;;;;;;;5022123;28;20192;-88
2023/10/26 00:27:05;;;;;;;15.40;13.00;;;;;;;;;;5034671;28;20180;-88
2023/10/26 00:29:31;;;;;;;15.13;12.67;;;;;;;;;;5035161;28;20226;-86
2023/10/26 00:31:57;;;;;;;13.37;11.67;;;;;;;;;;5038051;28;20262;-89
2023/10/26 00:34:23;;;;;;;14.13;11.77;;;;;;;;;;5038730;28;20180;-89
2023/10/26 00:36:52;;;;;;;13.97;12.50;;;;;;;;;;5022227;28;20187;-84
2023/10/26 00:39:18;;;;;;;14.00;12.57;;;;;;;;;;5020239;28;20191;-84
2023/10/26 00:41:47;;;;;;;16.70;12.90;;;;;;;;;;5034571;28;20188;-84
2023/10/26 00:44:14;;;;;;;20.37;12.83;;;;;;;;;;5034601;28;20223;-84
2023/10/26 00:46:46;;;;;;;15.60;13.00;;;;;;;;;;5037458;28;20247;-85
2023/10/26 00:49:15;;;;;;;16.00;13.40;;;;;;;;;;5032518;28;20218;-84
2023/10/26 00:51:42;;;;;;;14.73;12.67;;;;;;;;;;5037803;28;20215;-84
2023/10/26 00:54:15;;;;;;;15.77;13.43;;;;;;;;;;5036959;28;20237;-87
2023/10/26 00:56:41;;;;;;;20.17;15.00;;;;;;;;;;5037369;28;20184;-87
2023/10/26 00:59:11;;;;;;;22.87;17.87;;;;;;;;;;5017712;28;20199;-87
2023/10/26 01:01:37;;;;;;;24.27;17.23;;;;;;;;;;5040588;28;20188;-87
2023/10/26 01:04:05;;;;;;;21.73;17.67;;;;;;;;;;5034753;28;20214;-87
2023/10/26 01:06:31;;;;;;;20.57;17.30;;;;;;;;;;5038089;28;20180;-87
2023/10/26 01:08:57;;;;;;;21.53;17.80;;;;;;;;;;5037995;28;20180;-87
2023/10/26 01:11:23;;;;;;;20.53;18.20;;;;;;;;;;5038267;28;20184;-87
2023/10/26 01:13:50;;;;;;;26.17;19.07;;;;;;;;;;5037716;28;20180;-87
2023/10/26 01:16:19;;;;;;;21.87;18.87;;;;;;;;;;5030234;28;20184;-87
2023/10/26 01:18:45;;;;;;;24.73;18.90;;;;;;;;;;5035504;28;20176;-87
2023/10/26 01:21:11;;;;;;;21.00;18.77;;;;;;;;;;5028895;28;20207;-87
2023/10/26 01:23:37;;;;;;;22.73;20.03;;;;;;;;;;5014011;28;20206;-86
2023/10/26 01:26:03;;;;;;;22.53;18.67;;;;;;;;;;5023998;28;20191;-87
2023/10/26 01:28:29;;;;;;;21.37;19.17;;;;;;;;;;5014665;28;20196;-89
2023/10/26 01:30:56;;;;;;;20.87;17.53;;;;;;;;;;5026482;28;20211;-89
2023/10/26 01:33:24;;;;;;;19.70;17.60;;;;;;;;;;5051196;28;20203;-89
2023/10/26 01:35:50;;;;;;;19.60;17.60;;;;;;;;;;5021162;28;20188;-88
2023/10/26 01:38:16;;;;;;;19.53;17.37;;;;;;;;;;5037229;28;20244;-89
2023/10/26 01:40:43;;;;;;;19.20;17.03;;;;;;;;;;5021098;28;20184;-89
2023/10/26 01:43:09;;;;;;;20.10;18.00;;;;;;;;;;5020966;28;20198;-89
2023/10/26 01:45:35;;;;;;;19.87;17.77;;;;;;;;;;5023391;28;20322;-89
2023/10/26 01:48:02;;;;;;;21.10;18.90;;;;;;;;;;5037011;28;20184;-88
2023/10/26 01:50:29;;;;;;;19.70;17.63;;;;;;;;;;5036814;28;20264;-88
2023/10/26 01:52:55;;;;;;;20.27;18.10;;;;;;;;;;5013010;28;20204;-89
2023/10/26 01:55:21;;;;;;;25.33;19.40;;;;;;;;;;5037122;28;20219;-89
2023/10/26 01:57:48;;;;;;;20.97;18.67;;;;;;;;;;5036944;28;20191;-89
2023/10/26 02:00:14;;;;;;;20.20;18.00;;;;;;;;;;5020836;28;20184;-87
2023/10/26 02:02:41;;;;;;;20.00;17.37;;;;;;;;;;5036882;28;20184;-88
2023/10/26 02:05:07;;;;;;;21.10;18.13;;;;;;;;;;5026035;28;20193;-88
2023/10/26 02:07:33;;;;;;;18.83;16.93;;;;;;;;;;5033765;28;20279;-87
2023/10/26 02:10:00;;;;;;;21.27;18.20;;;;;;;;;;5027382;28;20184;-87
2023/10/26 02:12:26;;;;;;;21.13;18.40;;;;;;;;;;5034837;28;20204;-88
2023/10/26 02:14:52;;;;;;;19.73;17.63;;;;;;;;;;5036500;28;20176;-88
2023/10/26 02:17:18;;;;;;;20.97;18.67;;;;;;;;;;5036592;28;20259;-88
2023/10/26 02:19:44;;;;;;;20.30;18.20;;;;;;;;;;5028731;28;20180;-88
2023/10/26 02:22:10;;;;;;;21.00;18.80;;;;;;;;;;5036658;28;20270;-88
2023/10/26 02:24:42;;;;;;;20.67;18.50;;;;;;;;;;5034039;28;20184;-88
2023/10/26 02:27:08;;;;;;;22.17;19.33;;;;;;;;;;5020688;28;20188;-88
2023/10/26 02:29:34;;;;;;;21.17;18.97;;;;;;;;;;5033102;28;20211;-88
2023/10/26 02:32:02;;;;;;;22.13;19.73;;;;;;;;;;5035902;28;20204;-88
2023/10/26 02:34:28;;;;;;;21.97;19.57;;;;;;;;;;5036601;28;20252;-88
2023/10/26 02:37:01;;;;;;;23.23;19.23;;;;;;;;;;5036709;28;20211;-88
2023/10/26 02:39:28;;;;;;;23.93;21.43;;;;;;;;;;5023124;28;20168;-88
2023/10/26 02:41:57;;;;;;;25.43;21.87;;;;;;;;;;5033061;28;20176;-88
2023/10/26 02:44:23;;;;;;;28.73;22.73;;;;;;;;;;5025085;28;20184;-88
2023/10/26 02:46:49;;;;;;;25.00;22.30;;;;;;;;;;5036585;28;20282;-89
2023/10/26 02:49:15;;;;;;;26.13;22.67;;;;;;;;;;5018661;28;20283;-89
2023/10/26 02:51:44;;;;;;;27.83;23.90;;;;;;;;;;5035284;28;20207;-88
2023/10/26 02:54:10;;;;;;;25.37;22.43;;;;;;;;;;5025688;28;20244;-88
2023/10/26 02:56:36;;;;;;;26.60;23.70;;;;;;;;;;5024498;28;20169;-88
2023/10/26 02:59:03;;;;;;;26.53;23.63;;;;;;;;;;5027130;28;20169;-88
2023/10/26 03:01:33;;;;;;;25.00;22.30;;;;;;;;;;5030005;28;20177;-88
2023/10/26 03:04:00;;;;;;;25.97;23.27;;;;;;;;;;5016606;28;20231;-88
2023/10/26 03:06:26;;;;;;;25.50;22.67;;;;;;;;;;5030225;28;20240;-87
2023/10/26 03:08:52;;;;;;;28.00;23.57;;;;;;;;;;5016469;28;20184;-87
2023/10/26 03:11:18;;;;;;;25.67;22.87;;;;;;;;;;5032824;28;20182;-88
2023/10/26 03:13:47;;;;;;;26.80;23.87;;;;;;;;;;5032614;28;20187;-87
2023/10/26 03:16:13;;;;;;;25.17;22.47;;;;;;;;;;5010002;28;20284;-86
2023/10/26 03:18:39;;;;;;;27.27;24.37;;;;;;;;;;5035462;28;20182;-87
2023/10/26 03:21:06;;;;;;;25.40;22.67;;;;;;;;;;5036291;28;20181;-87
2023/10/26 03:23:32;;;;;;;29.23;24.50;;;;;;;;;;5036085;28;20193;-84
2023/10/26 03:25:59;;;;;;;27.93;24.63;;;;;;;;;;5035655;28;20188;-83
2023/10/26 03:28:25;;;;;;;30.20;25.33;;;;;;;;;;5019579;28;20188;-84
2023/10/26 03:30:52;;;;;;;27.40;24.10;;;;;;;;;;5035934;28;20188;-84
2023/10/26 03:33:18;;;;;;;26.80;24.00;;;;;;;;;;5026887;28;20292;-84
2023/10/26 03:35:44;;;;;;;29.43;24.00;;;;;;;;;;5039882;28;20177;-84
2023/10/26 03:38:10;;;;;;;29.37;25.80;;;;;;;;;;5035878;28;20241;-84
2023/10/26 03:40:36;;;;;;;27.40;24.37;;;;;;;;;;5041811;28;20176;-83
2023/10/26 03:43:02;;;;;;;30.43;25.33;;;;;;;;;;5035406;28;20193;-83
2023/10/26 03:45:29;;;;;;;32.93;25.93;;;;;;;;;;5035035;28;20198;-83
2023/10/26 03:47:57;;;;;;;28.37;25.33;;;;;;;;;;5035967;28;20177;-84
2023/10/26 03:50:23;;;;;;;29.70;24.83;;;;;;;;;;5036203;28;20184;-84
2023/10/26 03:52:49;;;;;;;31.17;24.57;;;;;;;;;;5031788;28;20244;-84
2023/10/26 03:55:15;;;;;;;30.67;24.77;;;;;;;;;;5004012;28;20236;-84
2023/10/26 03:57:43;;;;;;;29.73;25.67;;;;;;;;;;5036722;28;20192;-88
2023/10/26 04:00:09;;;;;;;33.47;25.33;;;;;;;;;;5020811;28;20301;-88
2023/10/26 04:02:36;;;;;;;27.93;24.93;;;;;;;;;;5034990;28;20196;-88
2023/10/26 04:05:04;;;;;;;30.27;25.73;;;;;;;;;;5019030;28;20220;-88
2023/10/26 04:07:30;;;;;;;27.20;24.30;;;;;;;;;;5021668;28;20200;-88
2023/10/26 04:09:56;;;;;;;30.20;24.70;;;;;;;;;;5038803;28;20176;-87
2023/10/26 04:12:22;;;;;;;29.13;24.97;;;;;;;;;;5038315;28;20211;-87
2023/10/26 04:14:48;;;;;;;28.40;24.03;;;;;;;;;;5022507;28;20176;-84
2023/10/26 04:17:17;;;;;;;28.97;25.20;;;;;;;;;;5019101;28;20195;-84
2023/10/26 04:19:43;;;;;;;26.27;23.33;;;;;;;;;;5033819;28;20194;-84
2023/10/26 04:22:11;;;;;;;27.33;23.50;;;;;;;;;;5038512;28;20194;-84
2023/10/26 04:24:40;;;;;;;30.03;25.33;;;;;;;;;;5039175;28;20198;-84
2023/10/26 04:27:07;;;;;;;29.97;24.33;;;;;;;;;;5036080;28;20242;-84
2023/10/26 04:29:36;;;;;;;28.07;24.40;;;;;;;;;;5037129;28;20199;-84
2023/10/26 04:32:05;;;;;;;27.50;24.60;;;;;;;;;;5043584;28;20211;-84
2023/10/26 04:34:33;;;;;;;28.60;23.87;;;;;;;;;;5038059;28;20279;-84
2023/10/26 04:37:02;;;;;;;27.80;24.23;;;;;;;;;;5035288;28;20189;-84
2023/10/26 04:39:29;;;;;;;28.27;23.63;;;;;;;;;;5021564;28;20192;-84
2023/10/26 04:41:55;;;;;;;28.80;24.60;;;;;;;;;;5026619;28;20188;-84
2023/10/26 04:44:21;;;;;;;28.33;23.77;;;;;;;;;;5038155;28;20184;-84
2023/10/26 04:46:50;;;;;;;30.13;23.97;;;;;;;;;;5038237;28;20202;-87
2023/10/26 04:49:16;;;;;;;28.80;24.20;;;;;;;;;;5028634;28;20200;-87
2023/10/26 04:51:42;;;;;;;27.53;23.90;;;;;;;;;;5037619;28;20187;-87
2023/10/26 04:54:08;;;;;;;27.77;23.97;;;;;;;;;;5022579;28;20191;-87
2023/10/26 04:56:35;;;;;;;29.57;24.70;;;;;;;;;;5037883;28;20333;-87
2023/10/26 04:59:01;;;;;;;30.93;24.77;;;;;;;;;;5038081;28;20184;-87
2023/10/26 05:01:27;;;;;;;31.90;24.53;;;;;;;;;;5021687;28;20243;-86
2023/10/26 05:03:53;;;;;;;32.43;24.93;;;;;;;;;;5020187;28;20261;-83
2023/10/26 05:06:19;;;;;;;32.50;24.87;;;;;;;;;;5031501;28;20188;-83
2023/10/26 05:08:46;;;;;;;31.27;25.27;;;;;;;;;;5037779;28;20176;-83
2023/10/26 05:11:13;;;;;;;29.33;24.37;;;;;;;;;;5038006;28;20279;-87
2023/10/26 05:13:39;;;;;;;28.57;24.77;;;;;;;;;;5021165;28;20212;-87
2023/10/26 05:16:08;;;;;;;27.57;23.80;;;;;;;;;;5020395;28;20279;-86
2023/10/26 05:18:34;;;;;;;30.77;24.20;;;;;;;;;;5034759;28;20219;-87
2023/10/26 05:21:00;;;;;;;27.67;22.93;;;;;;;;;;5006279;28;20192;-83
2023/10/26 05:23:26;;;;;;;28.97;24.20;;;;;;;;;;5046705;28;20187;-83
2023/10/26 05:25:52;;;;;;;33.97;24.70;;;;;;;;;;5042063;28;20184;-84
2023/10/26 05:28:19;;;;;;;25.80;22.97;;;;;;;;;;5037326;28;20188;-83
2023/10/26 05:30:45;;;;;;;25.40;22.67;;;;;;;;;;5028710;28;20208;-83
2023/10/26 05:33:11;;;;;;;26.53;23.27;;;;;;;;;;5043230;28;20207;-83
2023/10/26 05:35:37;;;;;;;33.60;25.73;;;;;;;;;;5020773;28;20190;-83
2023/10/26 05:38:06;;;;;;;35.03;26.37;;;;;;;;;;5034058;28;20184;-83
2023/10/26 05:40:33;;;;;;;26.43;23.60;;;;;;;;;;5021237;28;20373;-84
2023/10/26 05:42:59;;;;;;;41.87;26.77;;;;;;;;;;5021136;28;20176;-84
2023/10/26 05:45:25;;;;;;;40.80;26.83;;;;;;;;;;5020883;28;20214;-84
2023/10/26 05:47:52;;;;;;;53.27;28.27;;;;;;;;;;5032695;28;20189;-83
2023/10/26 05:50:18;;;;;;;60.13;29.37;;;;;;;;;;5050685;28;20238;-84
2023/10/26 05:52:44;;;;;;;143.60;28.37;;;;;;;;;;5033499;28;20216;-84
2023/10/26 05:55:10;;;;;;;79.10;25.70;;;;;;;;;;5036794;28;20180;-84
2023/10/26 05:57:37;;;;;;;124.03;25.50;;;;;;;;;;5038691;28;20215;-84
2023/10/26 06:00:06;;;;;;;128.70;28.33;;;;;;;;;;5036984;28;20172;-84
2023/10/26 06:02:32;;;;;;;186.30;33.97;;;;;;;;;;5036427;28;20184;-84
2023/10/26 06:04:59;;;;;;;99.93;27.90;;;;;;;;;;5019998;28;20188;-84
2023/10/26 06:07:27;;;;;;;107.90;31.23;;;;;;;;;;5036386;28;20183;-84
2023/10/26 06:09:53;;;;;;;97.10;29.30;;;;;;;;;;5018927;28;20279;-87
2023/10/26 06:12:19;;;;;;;88.17;28.83;;;;;;;;;;5019803;28;20215;-86
2023/10/26 06:14:45;;;;;;;61.50;24.10;;;;;;;;;;5036712;28;20180;-86
2023/10/26 06:17:12;;;;;;;71.77;25.90;;;;;;;;;;5020116;28;20184;-86
2023/10/26 06:19:40;;;;;;;61.73;25.23;;;;;;;;;;5044650;28;20186;-87
2023/10/26 06:22:09;;;;;;;65.03;25.00;;;;;;;;;;5030768;28;20177;-87
2023/10/26 06:24:35;;;;;;;89.00;27.30;;;;;;;;;;5011528;28;20233;-87
2023/10/26 06:27:04;;;;;;;58.73;25.30;;;;;;;;;;5013212;28;20202;-87
2023/10/26 06:29:32;;;;;;;66.40;24.77;;;;;;;;;;5045054;28;20222;-88
2023/10/26 06:31:58;;;;;;;60.50;24.63;;;;;;;;;;5034767;28;20223;-88
2023/10/26 06:34:24;;;;;;;47.43;24.13;;;;;;;;;;5029696;28;20188;-88
2023/10/26 06:36:53;;;;;;;50.60;23.77;;;;;;;;;;5035803;28;20188;-89
2023/10/26 06:39:19;;;;;;;49.83;25.03;;;;;;;;;;5020384;28;20179;-89
2023/10/26 06:41:45;;;;;;;70.27;25.40;;;;;;;;;;5017649;28;20189;-88
2023/10/26 06:44:11;;;;;;;72.77;26.17;;;;;;;;;;5019903;28;20198;-87
2023/10/26 06:46:42;;;;;;;46.70;25.63;;;;;;;;;;5035926;28;20184;-87
2023/10/26 06:49:09;;;;;;;92.67;25.00;;;;;;;;;;5007837;28;20222;-88
2023/10/26 06:51:36;;;;;;;45.50;24.80;;;;;;;;;;5033891;28;20183;-86
2023/10/26 06:54:02;;;;;;;58.97;26.20;;;;;;;;;;5030202;28;20273;-87
2023/10/26 06:56:28;;;;;;;219.27;31.80;;;;;;;;;;5033868;28;20251;-87
2023/10/26 06:59:02;;;;;;;115.30;30.37;;;;;;;;;;5039585;28;20176;-89
2023/10/26 07:01:28;;;;;;;126.73;30.37;;;;;;;;;;5028826;28;20235;-86
2023/10/26 07:03:54;;;;;;;190.93;34.30;;;;;;;;;;5041828;28;20184;-89
2023/10/26 07:06:20;;;;;;;141.77;30.83;;;;;;;;;;5020078;28;20192;-85
2023/10/26 07:08:49;;;;;;;51.37;26.17;;;;;;;;;;5002451;28;20185;-87
2023/10/26 07:11:15;;;;;;;72.93;27.33;;;;;;;;;;5020910;28;20184;-86
2023/10/26 07:13:42;;;;;;;55.03;27.97;;;;;;;;;;5038346;28;20270;-88
2023/10/26 07:16:08;;;;;;;65.97;26.27;;;;;;;;;;5037030;28;20173;-88
2023/10/26 07:18:34;;;;;;;137.17;31.27;;;;;;;;;;5024609;28;20176;-88
2023/10/26 07:21:05;;;;;;;81.17;27.33;;;;;;;;;;5053155;28;20181;-88
2023/10/26 07:23:32;;;;;;;172.03;30.70;;;;;;;;;;5034115;28;20304;-89
2023/10/26 07:25:58;;;;;;;89.20;25.03;;;;;;;;;;5022277;28;20184;-87
2023/10/26 07:28:24;;;;;;;204.57;27.23;;;;;;;;;;5039128;28;20188;-86
2023/10/26 07:30:53;;;;;;;216.93;28.30;;;;;;;;;;5045443;28;20183;-85
2023/10/26 07:33:19;;;;;;;274.60;26.73;;;;;;;;;;5048898;28;20200;-86
2023/10/26 07:35:52;;;;;;;417.13;32.30;;;;;;;;;;5036113;28;20241;-86
2023/10/26 07:38:18;;;;;;;85.53;24.90;;;;;;;;;;5035662;28;20180;-86
2023/10/26 07:40:48;;;;;;;193.13;23.90;;;;;;;;;;5036029;28;20195;-87
2023/10/26 07:43:14;;;;;;;167.83;24.40;;;;;;;;;;5036162;28;20192;-87
2023/10/26 07:45:41;;;;;;;102.57;23.77;;;;;;;;;;5032639;28;20276;-87
2023/10/26 07:48:07;;;;;;;200.40;24.93;;;;;;;;;;5002890;28;20185;-87
2023/10/26 07:50:33;;;;;;;69.50;22.53;;;;;;;;;;5016226;28;20196;-86
2023/10/26 07:52:59;;;;;;;89.93;24.10;;;;;;;;;;5032736;28;20207;-87
2023/10/26 07:55:26;;;;;;;159.90;24.03;;;;;;;;;;5036439;28;20177;-88
2023/10/26 07:57:53;;;;;;;112.17;22.70;;;;;;;;;;5035806;28;20235;-88
2023/10/26 08:00:20;;;;;;;179.53;22.90;;;;;;;;;;5019555;28;20180;-89
2023/10/26 08:02:46;;;;;;;138.93;23.70;;;;;;;;;;5020342;28;20180;-88
2023/10/26 08:05:15;;;;;;;91.43;23.43;;;;;;;;;;5034604;28;20191;-86
2023/10/26 08:07:41;;;;;;;156.13;24.90;;;;;;;;;;5027190;22;20247;-87
2023/10/26 08:10:11;;;;;;;92.70;24.00;;;;;;;;;;5035869;28;20177;-87
2023/10/26 08:12:37;;;;;;;140.57;24.60;;;;;;;;;;5035754;28;20208;-88
2023/10/26 08:15:04;;;;;;;182.53;25.77;;;;;;;;;;5035685;28;20267;-87
2023/10/26 08:17:34;;;;;;;174.50;24.50;;;;;;;;;;5035783;28;20173;-88
2023/10/26 08:20:04;;;;;;;37.53;22.10;;;;;;;;;;5035366;28;20172;-87
2023/10/26 08:22:31;;;;;;;64.77;21.53;;;;;;;;;;5044569;28;20184;-85
2023/10/26 08:24:57;;;;;;;84.30;21.83;;;;;;;;;;5039624;28;20187;-86
2023/10/26 08:27:24;;;;;;;34.37;21.23;;;;;;;;;;5035050;28;20181;-86
2023/10/26 08:29:50;;;;;;;51.30;22.63;;;;;;;;;;5043483;28;20203;-87
2023/10/26 08:32:16;;;;;;;92.20;22.73;;;;;;;;;;5019626;28;20216;-87
2023/10/26 08:34:44;;;;;;;31.03;21.80;;;;;;;;;;5019222;28;20181;-86
2023/10/26 08:37:10;;;;;;;29.40;21.57;;;;;;;;;;5019275;28;20272;-87
2023/10/26 08:39:42;;;;;;;85.73;20.60;;;;;;;;;;5022525;28;20204;-85
2023/10/26 08:42:09;;;;;;;51.77;20.83;;;;;;;;;;5033644;28;20230;-85
2023/10/26 08:44:35;;;;;;;39.77;22.23;;;;;;;;;;5052922;28;20274;-86
2023/10/26 08:47:05;;;;;;;44.40;23.70;;;;;;;;;;5035465;28;20244;-86
2023/10/26 08:49:32;;;;;;;52.70;23.63;;;;;;;;;;5032024;28;20181;-86
2023/10/26 08:52:01;;;;;;;72.57;23.83;;;;;;;;;;5001143;28;20208;-85
2023/10/26 08:54:30;;;;;;;40.13;24.03;;;;;;;;;;5047733;28;20205;-86
2023/10/26 08:56:56;;;;;;;65.13;25.13;;;;;;;;;;5017817;28;20243;-91
2023/10/26 08:59:25;;;;;;;54.00;25.53;;;;;;;;;;5038526;28;20185;-91
2023/10/26 09:01:52;;;;;;;33.57;25.27;;;;;;;;;;5036117;28;20209;-91
2023/10/26 09:04:21;;;;;;;28.30;24.93;;;;;;;;;;5035134;28;20173;-90
2023/10/26 09:06:52;;;;;;;40.60;27.17;;;;;;;;;;5024901;28;20181;-91
2023/10/26 09:09:21;;;;;;;29.90;26.60;;;;;;;;;;5037733;28;20176;-89
2023/10/26 09:11:49;;;;;;;30.30;25.17;;;;;;;;;;5034010;28;20262;-90
2023/10/26 09:14:17;;;;;;;34.77;27.40;;;;;;;;;;5041043;28;20266;-88
2023/10/26 09:16:46;;;;;;;29.97;26.53;;;;;;;;;;5044786;28;20194;-88
2023/10/26 09:19:19;;;;;;;32.93;27.67;;;;;;;;;;5041935;28;20188;-87
2023/10/26 09:21:49;;;;;;;34.07;28.33;;;;;;;;;;5017667;28;20187;-88
2023/10/26 09:24:31;;;;;;;37.70;26.80;;;;;;;;;;5018193;28;20183;-88
2023/10/26 09:27:00;;;;;;;37.27;27.83;;;;;;;;;;5046516;28;20269;-90
2023/10/26 09:29:36;;;;;;;39.27;26.50;;;;;;;;;;5038225;28;20195;-88
2023/10/26 09:32:02;;;;;;;36.73;26.63;;;;;;;;;;5043668;28;20279;-92
2023/10/26 09:34:28;;;;;;;36.83;24.93;;;;;;;;;;5021819;28;20267;-89
2023/10/26 09:37:04;;;;;;;47.87;24.63;;;;;;;;;;5032973;28;20188;-91
2023/10/26 09:39:31;;;;;;;35.13;25.47;;;;;;;;;;5026233;28;20255;-90
2023/10/26 09:41:59;;;;;;;35.40;25.70;;;;;;;;;;5017937;28;20188;-91
2023/10/26 09:44:25;;;;;;;39.10;26.00;;;;;;;;;;5023254;28;20245;-90
2023/10/26 09:47:01;;;;;;;40.93;26.97;;;;;;;;;;5018702;28;20180;-85
2023/10/26 09:49:27;;;;;;;35.10;26.73;;;;;;;;;;5027190;28;20187;-86
2023/10/26 09:51:55;;;;;;;31.27;27.67;;;;;;;;;;5024913;28;20212;-85
2023/10/26 09:54:38;;;;;;;35.10;27.97;;;;;;;;;;5022660;28;20210;-85
2023/10/26 09:57:14;;;;;;;32.13;28.37;;;;;;;;;;5032797;28;20250;-84
2023/10/26 09:59:41;;;;;;;31.50;27.63;;;;;;;;;;5037243;28;20176;-84
2023/10/26 10:02:16;;;;;;;30.63;27.30;;;;;;;;;;5033275;28;20211;-84
2023/10/26 10:04:43;;;;;;;32.67;28.07;;;;;;;;;;5018224;28;20187;-90
2023/10/26 10:07:09;;;;;;;32.17;27.87;;;;;;;;;;5033529;28;20228;-90
2023/10/26 10:09:54;;;;;;;31.97;27.03;;;;;;;;;;5034702;28;20196;-90
2023/10/26 10:12:26;;;;;;;30.37;27.27;;;;;;;;;;5030169;28;20263;-90
2023/10/26 10:14:55;;;;;;;30.37;27.17;;;;;;;;;;5048569;28;20177;-91
2023/10/26 10:17:22;;;;;;;28.77;25.77;;;;;;;;;;5033889;28;20185;-91
2023/10/26 10:20:09;;;;;;;31.00;26.77;;;;;;;;;;5034772;28;20177;-90
2023/10/26 10:22:37;;;;;;;28.67;25.67;;;;;;;;;;5019496;28;20195;-90
2023/10/26 10:25:04;;;;;;;31.87;28.07;;;;;;;;;;5034428;28;20204;-90
2023/10/26 10:27:30;;;;;;;29.73;26.53;;;;;;;;;;5033043;28;20184;-90
2023/10/26 10:29:57;;;;;;;30.40;27.00;;;;;;;;;;5034343;28;20176;-91
2023/10/26 10:33:04;;;;;;;30.67;26.97;;;;;;;;;;5052903;28;20211;-91
2023/10/26 10:35:43;;;;;;;30.97;27.73;;;;;;;;;;4942429;29;20207;-91
2023/10/26 10:38:12;;;;;;;31.40;27.97;;;;;;;;;;4923413;29;20199;-88
2023/10/26 10:40:41;;;;;;;31.77;26.93;;;;;;;;;;4994833;28;20204;-88
2023/10/26 10:43:07;;;;;;;31.17;27.90;;;;;;;;;;5031005;28;20193;-89
2023/10/26 10:45:34;;;;;;;30.10;26.90;;;;;;;;;;5013937;28;20192;-88
2023/10/26 10:48:07;;;;;;;31.00;27.30;;;;;;;;;;5048618;28;20195;-87
2023/10/26 10:50:33;;;;;;;31.83;28.47;;;;;;;;;;5033303;28;20188;-89
2023/10/26 10:52:59;;;;;;;32.90;28.40;;;;;;;;;;5029988;28;20212;-90
2023/10/26 10:55:29;;;;;;;31.27;27.87;;;;;;;;;;5013679;28;20177;-91
2023/10/26 10:57:59;;;;;;;29.43;26.20;;;;;;;;;;5020196;28;20200;-90
2023/10/26 11:00:26;;;;;;;29.93;26.67;;;;;;;;;;5024841;28;20186;-89
2023/10/26 11:02:56;;;;;;;29.40;25.93;;;;;;;;;;5038526;28;20192;-91
2023/10/26 11:05:52;;;;;;;29.50;26.40;;;;;;;;;;5033080;28;20203;-89
2023/10/26 11:08:19;;;;;;;28.23;25.30;;;;;;;;;;5033261;28;20224;-90
2023/10/26 11:10:54;;;;;;;29.40;26.43;;;;;;;;;;5030097;28;20220;-90
2023/10/26 11:13:26;;;;;;;28.80;25.70;;;;;;;;;;5016584;28;20308;-89
2023/10/26 11:15:52;;;;;;;29.17;26.10;;;;;;;;;;5014200;28;20189;-90
2023/10/26 11:18:18;;;;;;;72.73;30.43;;;;;;;;;;5013331;28;20205;-90
2023/10/26 11:20:48;;;;;;;33.00;27.57;;;;;;;;;;4999915;28;20288;-90
2023/10/26 11:23:16;;;;;;;30.20;27.10;;;;;;;;;;5019426;28;20193;-90
2023/10/26 11:28:46;;;;;;;30.07;26.90;;;;;;;;;;5016474;28;20160;-86
2023/10/26 11:31:12;;;;;;;30.20;26.90;;;;;;;;;;5019994;28;20188;-86
2023/10/26 11:33:40;;;;;;;31.80;28.00;;;;;;;;;;5016919;28;20212;-86
2023/10/26 11:36:08;;;;;;;30.70;27.37;;;;;;;;;;5033635;28;20276;-86
2023/10/26 11:38:34;;;;;;;30.73;27.50;;;;;;;;;;5040966;28;20180;-86
2023/10/26 11:41:06;;;;;;;33.77;27.93;;;;;;;;;;5052877;28;20181;-87
2023/10/26 11:43:37;;;;;;;31.33;28.03;;;;;;;;;;5035983;28;20247;-89
2023/10/26 11:46:05;;;;;;;30.43;27.13;;;;;;;;;;5033057;28;20203;-89
2023/10/26 11:48:52;;;;;;;30.97;26.40;;;;;;;;;;5022487;28;20193;-88
2023/10/26 11:51:21;;;;;;;33.17;27.83;;;;;;;;;;5035861;28;20176;-87
2023/10/26 11:53:50;;;;;;;30.90;27.60;;;;;;;;;;5019349;28;20235;-89
2023/10/26 11:56:16;;;;;;;32.50;27.37;;;;;;;;;;5036163;28;20187;-89
2023/10/26 12:01:45;;;;;;;31.57;28.03;;;;;;;;;;5036820;28;20250;-85
2023/10/26 12:04:12;;;;;;;31.17;27.87;;;;;;;;;;5032514;28;20207;-86
2023/10/26 12:07:01;;;;;;;31.67;28.07;;;;;;;;;;5015359;28;20173;-86
2023/10/26 12:09:30;;;;;;;30.10;26.83;;;;;;;;;;5038877;28;20192;-85
2023/10/26 12:12:12;;;;;;;31.83;26.97;;;;;;;;;;5018625;28;20176;-85
2023/10/26 12:14:39;;;;;;;30.47;27.13;;;;;;;;;;5031096;28;20191;-86
2023/10/26 12:17:08;;;;;;;30.13;26.90;;;;;;;;;;5015991;28;20266;-89
2023/10/26 12:19:34;;;;;;;30.93;27.60;;;;;;;;;;5038445;28;20182;-89
2023/10/26 12:25:07;;;;;;;29.37;26.17;;;;;;;;;;5045993;28;20167;-89
2023/10/26 12:27:34;;;;;;;30.77;27.13;;;;;;;;;;5038564;28;20267;-88
2023/10/26 12:30:00;;;;;;;34.00;27.97;;;;;;;;;;5038630;28;20258;-89
2023/10/26 12:32:37;;;;;;;32.07;27.97;;;;;;;;;;5035187;28;20240;-89
2023/10/26 12:35:03;;;;;;;30.70;27.40;;;;;;;;;;5023431;28;20242;-87
2023/10/26 12:37:29;;;;;;;30.00;26.50;;;;;;;;;;5021964;28;20176;-86
2023/10/26 12:39:55;;;;;;;28.90;25.77;;;;;;;;;;5033718;28;20211;-85
2023/10/26 12:42:23;;;;;;;30.27;26.90;;;;;;;;;;5021614;28;20184;-85
2023/10/26 12:45:05;;;;;;;27.67;24.53;;;;;;;;;;5021872;28;20621;-86
2023/10/26 12:47:31;;;;;;;30.37;26.23;;;;;;;;;;5033943;28;20229;-86
2023/10/26 12:49:58;;;;;;;29.40;26.20;;;;;;;;;;5030883;28;20192;-87
2023/10/26 12:52:24;;;;;;;31.67;27.10;;;;;;;;;;5035655;28;20216;-86
2023/10/26 12:54:50;;;;;;;30.37;26.57;;;;;;;;;;5043439;28;20190;-86
2023/10/26 12:57:24;;;;;;;30.70;26.47;;;;;;;;;;5038375;28;20180;-86
2023/10/26 12:59:50;;;;;;;28.77;25.57;;;;;;;;;;5038166;28;20179;-85
2023/10/26 13:02:16;;;;;;;30.37;27.07;;;;;;;;;;5037672;28;20184;-86
2023/10/26 13:04:42;;;;;;;30.00;26.80;;;;;;;;;;5021152;28;20192;-86
2023/10/26 13:07:11;;;;;;;31.90;25.90;;;;;;;;;;5037802;28;20219;-90
2023/10/26 13:09:41;;;;;;;29.57;24.77;;;;;;;;;;5034929;28;20193;-92
2023/10/26 13:12:07;;;;;;;27.23;24.33;;;;;;;;;;5032008;28;20235;-91
2023/10/26 13:14:33;;;;;;;27.80;24.30;;;;;;;;;;5035266;28;20180;-89
2023/10/26 13:16:59;;;;;;;29.03;25.17;;;;;;;;;;5034745;28;20223;-90
2023/10/26 13:19:27;;;;;;;27.90;24.40;;;;;;;;;;5038224;28;20171;-90
2023/10/26 13:21:53;;;;;;;27.73;24.83;;;;;;;;;;5021865;28;20227;-88
2023/10/26 13:24:19;;;;;;;26.07;23.27;;;;;;;;;;5021279;28;20187;-88
2023/10/26 13:26:45;;;;;;;25.43;22.57;;;;;;;;;;5026525;28;20188;-87
2023/10/26 13:29:11;;;;;;;26.37;22.73;;;;;;;;;;5028859;28;20193;-88
2023/10/26 13:31:37;;;;;;;25.23;22.60;;;;;;;;;;5052990;28;20207;-89
2023/10/26 13:34:10;;;;;;;25.20;22.60;;;;;;;;;;5054332;28;20203;-88
2023/10/26 13:36:36;;;;;;;24.10;21.60;;;;;;;;;;5042530;28;20187;-89
2023/10/26 13:39:04;;;;;;;26.00;21.10;;;;;;;;;;5017705;28;20181;-88
2023/10/26 13:41:30;;;;;;;23.67;21.17;;;;;;;;;;5037324;28;20282;-90
2023/10/26 13:43:59;;;;;;;24.27;21.23;;;;;;;;;;5021692;28;20189;-89
2023/10/26 13:46:25;;;;;;;23.37;20.87;;;;;;;;;;5038421;28;20194;-90
2023/10/26 13:52:13;;;;;;;24.47;21.97;;;;;;;;;;5048584;28;20183;-88
2023/10/26 13:54:48;;;;;;;25.00;22.33;;;;;;;;;;5016984;28;20192;-89
2023/10/26 13:57:14;;;;;;;24.20;21.63;;;;;;;;;;5021802;28;20203;-84
2023/10/26 13:59:41;;;;;;;25.73;23.03;;;;;;;;;;5038666;28;20179;-84
2023/10/26 14:02:07;;;;;;;26.73;22.50;;;;;;;;;;5020365;28;20180;-84
2023/10/26 14:04:33;;;;;;;24.67;22.10;;;;;;;;;;5033044;28;20185;-83
2023/10/26 14:06:59;;;;;;;25.57;22.87;;;;;;;;;;5032744;28;20276;-83
2023/10/26 14:09:37;;;;;;;26.43;23.60;;;;;;;;;;5036351;28;20184;-84
2023/10/26 14:12:03;;;;;;;26.73;23.90;;;;;;;;;;5018482;28;20190;-85
2023/10/26 14:14:30;;;;;;;26.87;24.07;;;;;;;;;;5016769;28;20227;-85
2023/10/26 14:16:56;;;;;;;27.03;24.13;;;;;;;;;;5016978;28;20207;-85
2023/10/26 14:19:22;;;;;;;27.30;24.40;;;;;;;;;;5013456;28;20187;-84
2023/10/26 14:21:48;;;;;;;27.57;24.63;;;;;;;;;;5036734;28;20172;-86
2023/10/26 14:24:14;;;;;;;27.57;24.67;;;;;;;;;;5036939;28;20172;-85
2023/10/26 14:26:40;;;;;;;31.20;25.47;;;;;;;;;;5036869;28;20176;-84
2023/10/26 14:29:06;;;;;;;28.00;24.80;;;;;;;;;;5036619;28;20179;-85
2023/10/26 14:31:32;;;;;;;28.70;24.70;;;;;;;;;;5020542;28;20208;-88
2023/10/26 14:34:00;;;;;;;27.17;24.23;;;;;;;;;;5035253;28;20215;-88